createdAt,value
2022-11-28T00:01:47.143Z,7.50
2022-11-28T00:04:14.912Z,7.40
2022-11-28T00:06:48.893Z,7.30
2022-11-28T00:09:17.570Z,7.30
2022-11-28T00:11:47.288Z,7.20
2022-11-28T00:14:17.429Z,7.20
2022-11-28T00:16:45.140Z,7.40
2022-11-28T00:19:13.667Z,7.30
2022-11-28T00:21:41.600Z,7.10
2022-11-28T00:24:09.673Z,7.20
2022-11-28T00:26:40.024Z,7.20
2022-11-28T00:29:09.333Z,7.20
2022-11-28T00:31:42.816Z,7.10
2022-11-28T00:34:11.691Z,7.10
2022-11-28T00:36:38.658Z,7.00
2022-11-28T00:39:06.448Z,7.00
2022-11-28T00:41:39.546Z,6.90
2022-11-28T00:44:06.798Z,7.00
2022-11-28T00:46:41.655Z,7.00
2022-11-28T00:49:11.703Z,7.00
2022-11-28T00:51:38.971Z,7.10
2022-11-28T00:54:11.897Z,7.10
2022-11-28T00:56:40.258Z,7.10
2022-11-28T00:59:08.383Z,7.10
2022-11-28T01:01:37.932Z,7.10
2022-11-28T01:04:12.563Z,7.10
2022-11-28T01:06:42.651Z,7.10
2022-11-28T01:09:13.581Z,7.00
2022-11-28T01:11:43.065Z,6.90
2022-11-28T01:14:11.328Z,6.90
2022-11-28T01:16:41.359Z,7.00
2022-11-28T01:19:12.796Z,7.00
2022-11-28T01:21:46.075Z,7.00
2022-11-28T01:24:15.128Z,6.90
2022-11-28T01:26:43.063Z,6.80
2022-11-28T01:29:12.906Z,6.80
2022-11-28T01:31:40.248Z,6.80
2022-11-28T01:34:07.338Z,6.80
2022-11-28T01:36:41.872Z,6.80
2022-11-28T01:39:12.365Z,6.80
2022-11-28T01:41:40.432Z,6.90
2022-11-28T01:44:48.203Z,6.90
2022-11-28T01:47:17.852Z,7.00
2022-11-28T01:49:46.855Z,6.90
2022-11-28T01:52:21.388Z,6.90
2022-11-28T01:55:00.460Z,6.90
2022-11-28T01:57:30.528Z,6.90
2022-11-28T02:00:03.898Z,6.90
2022-11-28T02:02:37.247Z,6.80
2022-11-28T02:05:05.044Z,6.80
2022-11-28T02:07:37.292Z,6.70
2022-11-28T02:10:10.178Z,6.60
2022-11-28T02:13:22.986Z,6.70
2022-11-28T02:16:24.871Z,6.60
2022-11-28T02:19:12.059Z,6.60
2022-11-28T02:21:52.641Z,6.60
2022-11-28T02:25:10.135Z,6.50
2022-11-28T02:28:35.460Z,6.50
2022-11-28T02:31:26.142Z,6.50
2022-11-28T02:33:57.619Z,6.60
2022-11-28T02:36:30.757Z,6.60
2022-11-28T02:39:08.741Z,6.60
2022-11-28T02:41:45.610Z,6.70
2022-11-28T02:44:17.097Z,6.70
2022-11-28T02:47:04.418Z,6.70
2022-11-28T02:49:38.208Z,6.70
2022-11-28T02:52:12.477Z,6.80
2022-11-28T02:54:47.829Z,6.70
2022-11-28T02:57:14.740Z,6.60
2022-11-28T02:59:55.586Z,6.70
2022-11-28T03:02:28.814Z,6.70
2022-11-28T03:05:06.980Z,6.70
2022-11-28T03:07:56.984Z,6.70
2022-11-28T03:10:32.880Z,6.70
2022-11-28T03:13:12.835Z,6.70
2022-11-28T03:15:58.271Z,6.70
2022-11-28T03:18:34.544Z,6.70
2022-11-28T03:21:22.679Z,6.70
2022-11-28T03:23:57.714Z,6.60
2022-11-28T03:26:37.133Z,6.50
2022-11-28T03:29:13.753Z,6.60
2022-11-28T03:31:47.207Z,6.50
2022-11-28T03:34:19.319Z,6.40
2022-11-28T03:36:52.636Z,6.40
2022-11-28T03:39:22.639Z,6.40
2022-11-28T03:41:54.207Z,6.40
2022-11-28T03:47:16.861Z,6.40
2022-11-28T03:49:50.246Z,6.50
2022-11-28T03:52:25.745Z,6.50
2022-11-28T03:54:56.393Z,6.50
2022-11-28T03:57:29.861Z,6.50
2022-11-28T04:00:04.643Z,6.40
2022-11-28T04:02:38.698Z,6.40
2022-11-28T04:05:21.532Z,6.40
2022-11-28T04:07:56.296Z,6.40
2022-11-28T04:10:32.083Z,6.40
2022-11-28T04:13:10.305Z,6.40
2022-11-28T04:15:48.887Z,6.50
2022-11-28T04:18:32.089Z,6.40
2022-11-28T04:21:07.363Z,6.40
2022-11-28T04:23:37.948Z,6.40
2022-11-28T04:26:14.333Z,6.40
2022-11-28T04:28:45.057Z,6.50
2022-11-28T04:31:12.918Z,6.50
2022-11-28T04:33:44.935Z,6.40
2022-11-28T04:36:20.559Z,6.40
2022-11-28T04:38:56.078Z,6.30
2022-11-28T04:41:28.825Z,6.30
2022-11-28T04:44:01.428Z,6.40
2022-11-28T04:46:36.185Z,6.40
2022-11-28T04:49:07.874Z,6.40
2022-11-28T04:51:46.263Z,6.20
2022-11-28T04:54:24.646Z,6.20
2022-11-28T04:56:59.840Z,6.30
2022-11-28T04:59:32.554Z,6.40
2022-11-28T05:02:04.757Z,6.40
2022-11-28T05:04:35.741Z,6.50
2022-11-28T05:07:08.404Z,6.50
2022-11-28T05:09:39.363Z,6.40
2022-11-28T05:12:07.246Z,6.40
2022-11-28T05:14:34.237Z,6.50
2022-11-28T05:17:08.403Z,6.50
2022-11-28T05:19:35.377Z,6.40
2022-11-28T05:22:02.319Z,6.40
2022-11-28T05:24:32.190Z,6.40
2022-11-28T05:27:00.884Z,6.40
2022-11-28T05:29:27.827Z,6.40
2022-11-28T05:31:55.036Z,6.30
2022-11-28T05:34:22.059Z,6.40
2022-11-28T05:36:56.459Z,6.40
2022-11-28T05:39:29.536Z,6.40
2022-11-28T05:42:00.226Z,6.50
2022-11-28T05:44:27.402Z,6.60
2022-11-28T05:47:00.509Z,6.60
2022-11-28T05:49:28.875Z,6.60
2022-11-28T05:52:01.675Z,6.60
2022-11-28T05:54:30.500Z,6.60
2022-11-28T05:56:57.409Z,6.70
2022-11-28T05:59:28.756Z,6.70
2022-11-28T06:01:55.753Z,6.70
2022-11-28T06:04:22.808Z,6.70
2022-11-28T06:06:50.907Z,6.70
2022-11-28T06:09:20.930Z,6.60
2022-11-28T06:11:51.478Z,6.70
2022-11-28T06:14:21.291Z,6.60
2022-11-28T06:16:49.640Z,6.70
2022-11-28T06:19:16.752Z,6.70
2022-11-28T06:21:43.934Z,6.70
2022-11-28T06:24:11.169Z,6.60
2022-11-28T06:26:38.081Z,6.60
2022-11-28T06:29:08.015Z,6.60
2022-11-28T06:31:35.108Z,6.60
2022-11-28T06:34:03.491Z,6.50
2022-11-28T06:36:30.913Z,6.60
2022-11-28T06:38:58.258Z,6.60
2022-11-28T06:41:27.089Z,6.60
2022-11-28T06:43:57.378Z,6.50
2022-11-28T06:46:24.397Z,6.60
2022-11-28T06:48:57.495Z,6.50
2022-11-28T06:51:25.848Z,6.50
2022-11-28T06:53:54.325Z,6.50
2022-11-28T06:56:25.502Z,6.60
2022-11-28T06:58:57.839Z,6.50
2022-11-28T07:01:27.622Z,6.50
2022-11-28T07:03:55.107Z,6.50
2022-11-28T07:06:26.046Z,6.50
2022-11-28T07:08:53.672Z,6.50
2022-11-28T07:11:32.190Z,6.40
2022-11-28T07:14:05.838Z,6.40
2022-11-28T07:16:41.741Z,6.40
2022-11-28T07:19:14.803Z,6.30
2022-11-28T07:21:55.668Z,6.30
2022-11-28T07:24:23.199Z,6.20
2022-11-28T07:26:50.101Z,6.30
2022-11-28T07:29:19.252Z,6.40
2022-11-28T07:31:49.252Z,6.40
2022-11-28T07:34:16.597Z,6.40
2022-11-28T07:36:43.636Z,6.20
2022-11-28T07:39:17.624Z,6.30
2022-11-28T07:41:44.583Z,6.40
2022-11-28T07:44:19.379Z,6.40
2022-11-28T07:46:55.098Z,6.40
2022-11-28T07:49:22.218Z,6.40
2022-11-28T07:51:58.533Z,6.30
2022-11-28T07:54:26.851Z,6.30
2022-11-28T07:57:15.134Z,6.40
2022-11-28T07:59:45.879Z,6.50
2022-11-28T08:02:19.300Z,6.50
2022-11-28T08:04:53.920Z,6.50
2022-11-28T08:07:25.294Z,6.50
2022-11-28T08:09:53.713Z,6.50
2022-11-28T08:12:23.824Z,6.60
2022-11-28T08:14:50.825Z,6.60
2022-11-28T08:17:21.024Z,6.60
2022-11-28T08:19:47.992Z,6.50
2022-11-28T08:22:15.104Z,6.60
2022-11-28T08:24:55.232Z,6.60
2022-11-28T08:27:25.276Z,6.60
2022-11-28T08:29:55.053Z,6.70
2022-11-28T08:32:22.126Z,6.60
2022-11-28T08:34:56.423Z,6.60
2022-11-28T08:37:23.411Z,6.60
2022-11-28T08:39:57.337Z,6.70
2022-11-28T08:42:24.491Z,6.80
2022-11-28T08:44:51.459Z,6.70
2022-11-28T08:47:20.034Z,6.70
2022-11-28T08:49:49.141Z,6.70
2022-11-28T08:52:17.698Z,6.70
2022-11-28T08:54:47.402Z,6.60
2022-11-28T08:57:15.677Z,6.70
2022-11-28T08:59:43.031Z,6.80
2022-11-28T09:02:13.468Z,6.90
2022-11-28T09:04:43.476Z,7.00
2022-11-28T09:07:13.630Z,7.00
2022-11-28T09:09:47.087Z,7.00
2022-11-28T09:12:18.292Z,7.10
2022-11-28T09:14:54.191Z,7.10
2022-11-28T09:17:29.945Z,7.10
2022-11-28T09:19:56.901Z,7.00
2022-11-28T09:22:23.838Z,6.90
2022-11-28T09:24:51.227Z,7.00
2022-11-28T09:27:22.004Z,6.90
2022-11-28T09:29:48.935Z,7.00
2022-11-28T09:32:18.817Z,7.10
2022-11-28T09:34:45.705Z,7.10
2022-11-28T09:37:12.792Z,7.10
2022-11-28T09:40:04.765Z,7.10
2022-11-28T09:42:41.319Z,7.20
2022-11-28T09:45:15.964Z,7.20
2022-11-28T09:47:52.132Z,7.20
2022-11-28T09:50:33.675Z,7.20
2022-11-28T09:53:21.413Z,7.20
2022-11-28T09:55:52.375Z,7.30
2022-11-28T09:58:30.723Z,7.40
2022-11-28T10:03:56.063Z,7.40
2022-11-28T10:06:29.561Z,7.40
2022-11-28T10:09:20.926Z,7.40
2022-11-28T10:12:10.345Z,7.40
2022-11-28T10:15:06.961Z,7.50
2022-11-28T10:18:06.042Z,7.40
2022-11-28T10:20:38.598Z,7.50
2022-11-28T10:23:21.418Z,7.50
2022-11-28T10:25:55.492Z,7.50
2022-11-28T10:28:28.742Z,7.60
2022-11-28T10:31:05.894Z,7.60
2022-11-28T10:33:41.702Z,7.50
2022-11-28T10:36:25.118Z,7.40
2022-11-28T10:38:54.699Z,7.40
2022-11-28T10:41:32.261Z,7.30
2022-11-28T10:44:05.721Z,7.40
2022-11-28T10:46:54.918Z,7.40
2022-11-28T10:49:37.219Z,7.30
2022-11-28T10:52:15.980Z,7.40
2022-11-28T10:55:07.708Z,7.40
2022-11-28T10:58:02.385Z,7.50
2022-11-28T11:00:36.804Z,7.30
2022-11-28T11:03:27.184Z,7.30
2022-11-28T11:05:54.177Z,7.30
2022-11-28T11:08:24.433Z,7.40
2022-11-28T11:11:00.209Z,7.50
2022-11-28T11:13:29.567Z,7.50
2022-11-28T11:16:06.537Z,7.50
2022-11-28T11:18:51.918Z,7.50
2022-11-28T11:21:22.025Z,7.50
2022-11-28T11:24:11.175Z,7.50
2022-11-28T11:26:41.041Z,7.50
2022-11-28T11:29:35.802Z,7.60
2022-11-28T11:32:21.607Z,7.60
2022-11-28T11:34:57.865Z,7.60
2022-11-28T11:37:43.749Z,7.60
2022-11-28T11:40:26.359Z,7.60
2022-11-28T11:42:59.308Z,7.50
2022-11-28T11:45:33.262Z,7.60
2022-11-28T11:48:01.579Z,7.60
2022-11-28T11:50:41.726Z,7.60
2022-11-28T11:53:13.882Z,7.70
2022-11-28T11:55:51.728Z,7.70
2022-11-28T11:58:22.866Z,7.90
2022-11-28T12:00:56.880Z,7.90
2022-11-28T12:03:28.828Z,8.00
2022-11-28T12:06:14.358Z,8.00
2022-11-28T12:08:50.145Z,7.90
2022-11-28T12:11:22.757Z,7.80
2022-11-28T12:13:51.258Z,7.80
2022-11-28T12:16:43.063Z,7.70
2022-11-28T12:19:23.739Z,7.70
2022-11-28T12:22:09.252Z,7.80
2022-11-28T12:24:49.925Z,7.70
2022-11-28T12:27:34.112Z,7.80
2022-11-28T12:30:26.307Z,7.70
2022-11-28T12:33:24.134Z,7.80
2022-11-28T12:36:07.414Z,7.80
2022-11-28T12:39:03.419Z,7.70
2022-11-28T12:41:55.978Z,7.80
2022-11-28T12:44:38.771Z,7.70
2022-11-28T12:47:20.728Z,7.70
2022-11-28T12:50:01.033Z,7.80
2022-11-28T12:52:39.283Z,7.70
2022-11-28T12:55:21.667Z,7.70
2022-11-28T12:57:59.528Z,7.80
2022-11-28T13:00:34.464Z,7.90
2022-11-28T13:03:10.840Z,7.80
2022-11-28T13:05:54.147Z,7.70
2022-11-28T13:09:01.695Z,7.70
2022-11-28T13:11:51.392Z,7.80
2022-11-28T13:14:38.098Z,7.70
2022-11-28T13:17:20.842Z,7.70
2022-11-28T13:19:55.434Z,7.70
2022-11-28T13:22:38.054Z,7.70
2022-11-28T13:25:20.019Z,7.80
2022-11-28T13:27:59.103Z,7.80
2022-11-28T13:30:43.081Z,7.70
2022-11-28T13:33:32.377Z,7.70
2022-11-28T13:36:04.296Z,7.70
2022-11-28T13:39:11.388Z,7.70
2022-11-28T13:45:02.335Z,7.70
2022-11-28T13:47:35.116Z,7.70
2022-11-28T13:50:41.198Z,7.60
2022-11-28T13:53:24.384Z,7.60
2022-11-28T13:55:54.235Z,7.60
2022-11-28T13:58:25.896Z,7.60
2022-11-28T14:01:10.485Z,7.70
2022-11-28T14:03:47.703Z,7.80
2022-11-28T14:06:21.327Z,7.90
2022-11-28T14:09:08.582Z,8.00
2022-11-28T14:12:04.566Z,7.90
2022-11-28T14:15:06.494Z,7.90
2022-11-28T14:17:54.433Z,7.90
2022-11-28T14:20:36.497Z,8.00
2022-11-28T14:23:20.299Z,8.00
2022-11-28T14:25:50.508Z,8.00
2022-11-28T14:28:23.757Z,8.00
2022-11-28T14:30:52.238Z,7.90
2022-11-28T14:33:26.619Z,8.00
2022-11-28T14:36:27.788Z,8.00
2022-11-28T14:39:10.762Z,8.10
2022-11-28T14:45:44.624Z,8.00
2022-11-28T14:48:29.393Z,8.10
2022-11-28T14:51:02.135Z,8.10
2022-11-28T14:53:48.310Z,8.10
2022-11-28T14:56:30.511Z,8.10
2022-11-28T14:59:02.207Z,8.10
2022-11-28T15:01:45.641Z,8.10
2022-11-28T15:04:49.294Z,8.10
2022-11-28T15:07:37.215Z,8.10
2022-11-28T15:10:14.206Z,8.10
2022-11-28T15:12:55.100Z,8.10
2022-11-28T15:15:22.871Z,8.10
2022-11-28T15:17:53.301Z,8.10
2022-11-28T15:20:28.532Z,8.10
2022-11-28T15:22:55.638Z,8.10
2022-11-28T15:25:25.805Z,8.10
2022-11-28T15:27:55.434Z,8.10
2022-11-28T15:30:26.374Z,8.10
2022-11-28T15:32:58.490Z,8.10
2022-11-28T15:35:28.007Z,8.10
2022-11-28T15:37:57.966Z,8.10
2022-11-28T15:40:33.073Z,8.10
2022-11-28T15:43:02.176Z,8.10
2022-11-28T15:45:50.029Z,8.10
2022-11-28T15:48:39.903Z,8.10
2022-11-28T15:51:29.644Z,8.10
2022-11-28T15:53:56.967Z,8.00
2022-11-28T15:56:24.096Z,8.00
2022-11-28T15:58:52.775Z,8.10
2022-11-28T16:01:23.444Z,8.10
2022-11-28T16:03:55.265Z,8.10
2022-11-28T16:06:27.539Z,8.10
2022-11-28T16:09:00.911Z,8.10
2022-11-28T16:11:31.043Z,8.10
2022-11-28T16:14:07.200Z,8.10
2022-11-28T16:16:36.653Z,8.20
2022-11-28T16:19:16.898Z,8.10
2022-11-28T16:21:54.187Z,8.10
2022-11-28T16:24:38.542Z,8.10
2022-11-28T16:27:06.593Z,8.10
2022-11-28T16:29:36.293Z,8.10
2022-11-28T16:32:08.673Z,8.10
2022-11-28T16:34:46.694Z,8.10
2022-11-28T16:37:21.104Z,8.20
2022-11-28T16:39:59.760Z,8.20
2022-11-28T16:42:29.588Z,8.20
2022-11-28T16:44:56.731Z,8.20
2022-11-28T16:47:27.145Z,8.20
2022-11-28T16:50:19.861Z,8.20
2022-11-28T16:52:52.886Z,8.20
2022-11-28T16:55:44.252Z,8.20
2022-11-28T16:58:17.741Z,8.20
2022-11-28T17:00:59.259Z,8.20
2022-11-28T17:03:50.459Z,8.10
2022-11-28T17:06:28.644Z,8.10
2022-11-28T17:08:57.156Z,8.10
2022-11-28T17:11:28.611Z,8.20
2022-11-28T17:14:01.333Z,8.20
2022-11-28T17:16:33.525Z,8.20
2022-11-28T17:19:03.093Z,8.10
2022-11-28T17:21:38.476Z,8.10
2022-11-28T17:24:29.765Z,8.10
2022-11-28T17:26:56.867Z,8.20
2022-11-28T17:29:25.403Z,8.20
2022-11-28T17:31:55.069Z,8.20
2022-11-28T17:34:25.070Z,8.10
2022-11-28T17:36:52.771Z,8.10
2022-11-28T17:39:21.503Z,8.10
2022-11-28T17:41:49.694Z,7.90
2022-11-28T17:44:20.628Z,7.90
2022-11-28T17:46:47.901Z,7.90
2022-11-28T17:49:14.888Z,7.90
2022-11-28T17:51:42.554Z,7.90
2022-11-28T17:54:11.547Z,7.80
2022-11-28T17:56:40.097Z,7.80
2022-11-28T17:59:07.007Z,7.80
2022-11-28T18:01:34.178Z,7.80
2022-11-28T18:04:04.603Z,7.90
2022-11-28T18:06:32.420Z,7.90
2022-11-28T18:09:01.215Z,7.90
2022-11-28T18:11:32.092Z,7.90
2022-11-28T18:14:00.469Z,8.00
2022-11-28T18:16:27.930Z,8.10
2022-11-28T18:18:58.234Z,8.10
2022-11-28T18:21:26.681Z,8.20
2022-11-28T18:23:54.509Z,8.20
2022-11-28T18:26:24.201Z,8.20
2022-11-28T18:28:54.534Z,8.30
2022-11-28T18:31:28.662Z,8.30
2022-11-28T18:34:02.216Z,8.30
2022-11-28T18:36:33.379Z,8.40
2022-11-28T18:39:04.282Z,8.30
2022-11-28T18:41:33.269Z,8.30
2022-11-28T18:44:07.802Z,8.30
2022-11-28T18:46:36.482Z,8.30
2022-11-28T18:49:12.232Z,8.20
2022-11-28T18:51:44.713Z,8.20
2022-11-28T18:54:20.547Z,8.20
2022-11-28T18:56:57.655Z,8.20
2022-11-28T18:59:30.598Z,8.30
2022-11-28T19:01:59.212Z,8.30
2022-11-28T19:04:35.289Z,8.30
2022-11-28T19:07:03.942Z,8.20
2022-11-28T19:09:31.354Z,8.30
2022-11-28T19:11:58.473Z,8.30
2022-11-28T19:14:25.382Z,8.30
2022-11-28T19:16:54.169Z,8.30
2022-11-28T19:19:31.804Z,8.30
2022-11-28T19:21:58.821Z,8.20
2022-11-28T19:24:29.103Z,8.20
2022-11-28T19:26:57.085Z,8.30
2022-11-28T19:29:26.474Z,8.20
2022-11-28T19:31:53.598Z,8.20
2022-11-28T19:34:23.801Z,8.20
2022-11-28T19:36:52.660Z,8.20
2022-11-28T19:39:25.499Z,8.20
2022-11-28T19:41:53.852Z,8.20
2022-11-28T19:44:23.864Z,8.20
2022-11-28T19:47:03.032Z,8.20
2022-11-28T19:49:36.215Z,8.20
2022-11-28T19:52:08.198Z,8.20
2022-11-28T19:54:35.317Z,8.20
2022-11-28T19:57:10.320Z,8.20
2022-11-28T19:59:37.340Z,8.20
2022-11-28T20:02:05.986Z,8.20
2022-11-28T20:04:33.008Z,8.30
2022-11-28T20:07:04.504Z,8.30
2022-11-28T20:09:37.359Z,8.30
2022-11-28T20:12:05.208Z,8.10
2022-11-28T20:14:35.498Z,8.00
2022-11-28T20:17:02.513Z,7.90
2022-11-28T20:19:29.594Z,8.00
2022-11-28T20:21:58.470Z,8.00
2022-11-28T20:24:26.916Z,8.10
2022-11-28T20:26:53.936Z,8.20
2022-11-28T20:29:20.949Z,8.20
2022-11-28T20:31:58.335Z,8.20
2022-11-28T20:34:25.580Z,8.20
2022-11-28T20:36:53.717Z,8.30
2022-11-28T20:39:21.225Z,8.30
2022-11-28T20:41:52.808Z,8.30
2022-11-28T20:44:20.276Z,8.30
2022-11-28T20:46:52.897Z,8.20
2022-11-28T20:49:26.116Z,8.30
2022-11-28T20:51:53.021Z,8.30
2022-11-28T20:54:22.629Z,8.20
2022-11-28T20:57:19.700Z,8.20
2022-11-28T20:59:38.034Z,8.30
2022-11-28T21:02:05.074Z,8.20
2022-11-28T21:04:32.102Z,8.20
2022-11-28T21:07:01.871Z,8.20
2022-11-28T21:09:28.883Z,8.10
2022-11-28T21:11:58.200Z,8.00
2022-11-28T21:14:26.995Z,7.90
2022-11-28T21:16:55.964Z,7.90
2022-11-28T21:19:28.673Z,7.90
2022-11-28T21:22:07.885Z,7.90
2022-11-28T21:24:35.127Z,7.80
2022-11-28T21:27:05.341Z,7.90
2022-11-28T21:29:32.491Z,7.90
2022-11-28T21:32:03.681Z,7.80
2022-11-28T21:34:30.722Z,7.80
2022-11-28T21:36:59.997Z,7.70
2022-11-28T21:39:29.800Z,7.70
2022-11-28T21:41:58.509Z,7.70
2022-11-28T21:44:28.335Z,7.70
2022-11-28T21:46:55.344Z,7.80
2022-11-28T21:49:23.909Z,7.80
2022-11-28T21:51:50.858Z,7.80
2022-11-28T21:54:18.058Z,7.90
2022-11-28T21:56:46.458Z,8.00
2022-11-28T21:59:15.587Z,8.00
2022-11-28T22:01:42.670Z,7.90
2022-11-28T22:04:10.761Z,8.00
2022-11-28T22:06:39.589Z,8.00
2022-11-28T22:09:09.358Z,8.10
2022-11-28T22:11:37.508Z,8.10
2022-11-28T22:14:04.557Z,8.10
2022-11-28T22:16:31.673Z,8.10
2022-11-28T22:19:00.445Z,8.00
2022-11-28T22:24:16.329Z,7.90
2022-11-28T22:26:43.346Z,8.00
2022-11-28T22:29:10.462Z,8.00
2022-11-28T22:31:37.537Z,7.90
2022-11-28T22:34:04.547Z,7.90
2022-11-28T22:36:33.450Z,7.80
2022-11-28T22:39:03.845Z,7.90
2022-11-28T22:41:41.332Z,7.80
2022-11-28T22:44:11.832Z,7.90
2022-11-28T22:46:39.128Z,7.90
2022-11-28T22:49:06.949Z,7.80
2022-11-28T22:51:37.587Z,7.90
2022-11-28T22:54:11.651Z,8.00
2022-11-28T22:56:43.082Z,8.00
2022-11-28T22:59:13.169Z,8.10
2022-11-28T23:01:40.953Z,8.10
2022-11-28T23:04:07.897Z,8.00
2022-11-28T23:06:35.749Z,8.00
2022-11-28T23:09:07.684Z,7.90
2022-11-28T23:11:39.695Z,7.90
2022-11-28T23:14:20.323Z,7.90
2022-11-28T23:16:47.459Z,8.00
2022-11-28T23:19:26.725Z,8.00
2022-11-28T23:21:54.081Z,8.10
2022-11-28T23:24:24.047Z,8.00
2022-11-28T23:26:52.814Z,8.00
2022-11-28T23:29:21.632Z,8.10
2022-11-28T23:31:48.811Z,8.00
2022-11-28T23:34:16.116Z,8.00
2022-11-28T23:36:47.093Z,8.00
2022-11-28T23:39:16.224Z,8.10
2022-11-28T23:41:44.028Z,8.00
2022-11-28T23:44:12.008Z,8.00
2022-11-28T23:46:43.741Z,7.90
2022-11-28T23:49:13.978Z,8.00
2022-11-28T23:51:42.239Z,7.90
2022-11-28T23:54:13.054Z,8.00
2022-11-28T23:56:41.907Z,8.00
2022-11-28T23:59:14.937Z,8.10
